Time;durP1;ratioP1;P1;durP2;ratioP2;P2;SDS_P1;SDS_P2;PMS_P1;PMS_P2;Temp;Humidity;BMP_temperature;BMP_pressure;BME280_temperature;BME280_humidity;BME280_pressure;Samples;Min_cycle;Max_cycle;Signal;HPM_P1;HPM_P2
2023/06/06 00:02:16;;;;;;;5.85;3.50;;;;;19.10;102003.00;;;;5089218;28;20213;-78
2023/06/06 00:04:45;;;;;;;5.10;3.40;;;;;19.00;101992.00;;;;5087860;28;20194;-78
2023/06/06 00:07:12;;;;;;;5.82;3.20;;;;;19.00;102000.00;;;;5089512;28;20190;-78
2023/06/06 00:09:40;;;;;;;5.18;3.40;;;;;19.00;102002.00;;;;5083271;28;20633;-77
2023/06/06 00:12:12;;;;;;;4.22;3.13;;;;;18.90;102004.00;;;;5091099;28;20193;-78
2023/06/06 00:14:42;;;;;;;4.97;3.47;;;;;18.90;102004.00;;;;5087447;28;20194;-78
2023/06/06 00:17:09;;;;;;;4.80;3.05;;;;;18.90;102010.00;;;;5084110;28;20691;-78
2023/06/06 00:19:40;;;;;;;5.88;3.35;;;;;18.90;102006.00;;;;5087833;28;20210;-78
2023/06/06 00:22:08;;;;;;;4.25;2.95;;;;;18.90;102007.00;;;;5090022;28;20675;-77
2023/06/06 00:24:35;;;;;;;7.57;3.28;;;;;18.80;102008.00;;;;5090164;28;20664;-77
2023/06/06 00:27:03;;;;;;;6.03;3.88;;;;;18.80;102008.00;;;;5090413;28;20207;-77
2023/06/06 00:29:30;;;;;;;4.85;3.33;;;;;18.80;102003.00;;;;5084519;28;20186;-77
2023/06/06 00:31:59;;;;;;;5.60;3.35;;;;;18.80;102004.00;;;;5079110;28;20206;-78
2023/06/06 00:34:26;;;;;;;4.97;3.55;;;;;18.80;101998.00;;;;5088794;28;20218;-77
2023/06/06 00:36:53;;;;;;;5.45;3.10;;;;;18.70;101994.00;;;;5079503;28;20202;-78
2023/06/06 00:39:21;;;;;;;5.40;3.42;;;;;18.70;101999.00;;;;5086159;28;20198;-77
2023/06/06 00:41:48;;;;;;;5.53;3.30;;;;;18.70;102010.00;;;;5081230;28;20199;-77
2023/06/06 00:44:16;;;;;;;4.47;3.15;;;;;18.70;102004.00;;;;5083323;28;20205;-77
2023/06/06 00:46:44;;;;;;;4.47;3.08;;;;;18.70;102007.00;;;;5087047;28;20198;-77
2023/06/06 00:49:16;;;;;;;5.18;3.28;;;;;18.70;102003.00;;;;5087712;28;20197;-77
2023/06/06 00:51:44;;;;;;;4.68;3.22;;;;;18.70;102012.00;;;;5078402;28;20226;-77
2023/06/06 00:54:14;;;;;;;5.10;3.28;;;;;18.60;102011.00;;;;5081944;28;20190;-77
2023/06/06 00:56:43;;;;;;;3.70;2.97;;;;;18.60;102018.00;;;;5080743;28;20204;-77
2023/06/06 00:59:11;;;;;;;8.18;4.10;;;;;18.60;102008.00;;;;5087426;28;20906;-77
2023/06/06 01:01:41;;;;;;;4.30;3.22;;;;;18.60;102006.00;;;;5086425;28;20569;-77
2023/06/06 01:04:10;;;;;;;6.80;3.97;;;;;18.60;102009.00;;;;5080038;28;20252;-78
2023/06/06 01:06:39;;;;;;;5.72;3.75;;;;;18.60;102005.00;;;;5079832;28;20202;-77
2023/06/06 01:09:08;;;;;;;6.55;3.50;;;;;18.60;102006.00;;;;5082301;28;21110;-77
2023/06/06 01:11:45;;;;;;;6.25;3.40;;;;;18.50;102004.00;;;;5087500;28;20700;-77
2023/06/06 01:14:21;;;;;;;5.63;3.45;;;;;18.60;102003.00;;;;5086073;28;20202;-77
2023/06/06 01:16:53;;;;;;;7.38;4.45;;;;;18.50;101999.00;;;;5085123;28;20202;-77
2023/06/06 01:19:27;;;;;;;6.43;3.50;;;;;18.50;102006.00;;;;5085000;28;20202;-77
2023/06/06 01:21:57;;;;;;;4.57;3.40;;;;;18.50;102000.00;;;;5084615;28;20197;-77
2023/06/06 01:24:26;;;;;;;5.55;3.35;;;;;18.50;101999.00;;;;5080714;28;20199;-78
2023/06/06 01:26:55;;;;;;;5.68;3.38;;;;;18.50;101998.00;;;;5087617;28;20208;-77
2023/06/06 01:29:23;;;;;;;6.30;3.63;;;;;18.40;101998.00;;;;5086623;28;21719;-77
2023/06/06 01:32:00;;;;;;;5.50;4.13;;;;;18.40;101998.00;;;;5088728;28;20218;-77
2023/06/06 01:34:31;;;;;;;3.85;2.88;;;;;18.40;101991.00;;;;5088403;28;20228;-78
2023/06/06 01:37:11;;;;;;;6.18;3.83;;;;;18.30;101995.00;;;;5088004;28;20203;-77
2023/06/06 01:39:42;;;;;;;4.50;3.35;;;;;18.40;101993.00;;;;5083440;28;20206;-77
2023/06/06 01:42:10;;;;;;;4.53;3.40;;;;;18.40;101993.00;;;;5078293;28;20187;-77
2023/06/06 01:44:38;;;;;;;5.63;4.15;;;;;18.30;101993.00;;;;5086166;28;20205;-77
2023/06/06 01:47:07;;;;;;;5.28;3.47;;;;;18.30;101997.00;;;;5088349;28;20205;-78
2023/06/06 01:49:34;;;;;;;5.22;3.83;;;;;18.30;101996.00;;;;5083084;28;20194;-77
2023/06/06 01:52:04;;;;;;;5.72;4.22;;;;;18.30;101992.00;;;;5089741;28;20214;-77
2023/06/06 01:54:35;;;;;;;6.00;3.90;;;;;18.20;101986.00;;;;5087098;28;20208;-78
2023/06/06 01:57:03;;;;;;;5.47;3.97;;;;;18.20;101988.00;;;;5079306;28;20303;-78
2023/06/06 01:59:31;;;;;;;7.18;4.07;;;;;18.20;101992.00;;;;5086085;28;20247;-78
2023/06/06 02:01:58;;;;;;;6.93;4.13;;;;;18.20;101981.00;;;;5083739;28;20190;-78
2023/06/06 02:04:25;;;;;;;8.20;4.53;;;;;18.20;101982.00;;;;5087687;28;20201;-78
2023/06/06 02:06:53;;;;;;;6.28;4.00;;;;;18.20;101989.00;;;;5087405;28;20182;-77
2023/06/06 02:09:22;;;;;;;5.70;4.18;;;;;18.10;101989.00;;;;5084408;28;20621;-77
2023/06/06 02:11:49;;;;;;;7.05;3.92;;;;;18.10;101981.00;;;;5083150;28;20223;-77
2023/06/06 02:14:16;;;;;;;5.30;3.97;;;;;18.10;101991.00;;;;5082037;28;20202;-77
2023/06/06 02:16:45;;;;;;;5.50;3.75;;;;;18.10;101987.00;;;;5087683;28;20194;-78
2023/06/06 02:19:13;;;;;;;5.00;3.65;;;;;18.00;101984.00;;;;5082963;28;20190;-77
2023/06/06 02:21:41;;;;;;;5.55;4.30;;;;;18.10;101988.00;;;;5084524;28;20651;-77
2023/06/06 02:24:08;;;;;;;5.53;3.80;;;;;18.00;101980.00;;;;5083073;28;20203;-77
2023/06/06 02:26:37;;;;;;;4.63;3.45;;;;;18.00;101993.00;;;;5087459;28;20207;-77
2023/06/06 02:29:06;;;;;;;7.45;4.15;;;;;18.00;101982.00;;;;5080716;28;20281;-78
2023/06/06 02:31:36;;;;;;;6.82;3.90;;;;;18.00;101978.00;;;;5083160;28;20237;-77
2023/06/06 02:34:03;;;;;;;6.18;3.90;;;;;18.00;101983.00;;;;5087460;28;20638;-77
2023/06/06 02:36:31;;;;;;;5.78;3.97;;;;;18.00;101986.00;;;;5083898;28;20203;-77
2023/06/06 02:38:58;;;;;;;5.88;3.75;;;;;18.00;101981.00;;;;5086531;28;20209;-77
2023/06/06 02:41:26;;;;;;;7.63;4.38;;;;;17.90;101978.00;;;;5087249;28;20195;-77
2023/06/06 02:43:55;;;;;;;6.70;4.30;;;;;17.90;101980.00;;;;5082615;28;20281;-77
2023/06/06 02:46:23;;;;;;;6.82;3.88;;;;;17.90;101978.00;;;;5072227;28;20210;-77
2023/06/06 02:48:50;;;;;;;4.45;3.60;;;;;17.90;101976.00;;;;5086657;28;20209;-77
2023/06/06 02:51:19;;;;;;;5.65;3.80;;;;;17.90;101979.00;;;;5086085;28;20230;-77
2023/06/06 02:53:49;;;;;;;4.60;3.13;;;;;17.90;101981.00;;;;5086362;28;20204;-78
2023/06/06 02:56:17;;;;;;;5.35;4.22;;;;;17.90;101979.00;;;;5085147;28;20209;-77
2023/06/06 02:58:44;;;;;;;4.60;3.40;;;;;17.90;101984.00;;;;5085508;28;20271;-77
2023/06/06 03:01:13;;;;;;;5.53;3.58;;;;;17.80;101991.00;;;;5076449;28;20199;-77
2023/06/06 03:03:41;;;;;;;4.88;3.72;;;;;17.80;101987.00;;;;5080429;28;20198;-78
2023/06/06 03:06:09;;;;;;;5.78;3.95;;;;;17.80;101996.00;;;;5084872;28;20202;-77
2023/06/06 03:08:39;;;;;;;6.35;3.92;;;;;17.80;101991.00;;;;5083394;28;20676;-77
2023/06/06 03:11:06;;;;;;;7.10;4.35;;;;;17.80;101989.00;;;;5085193;28;20222;-78
2023/06/06 03:13:33;;;;;;;4.60;3.35;;;;;17.80;101987.00;;;;5081542;28;20194;-77
2023/06/06 03:16:01;;;;;;;5.97;4.05;;;;;17.80;101987.00;;;;5079675;28;20206;-78
2023/06/06 03:18:29;;;;;;;6.25;3.10;;;;;17.70;101995.00;;;;5086349;28;20194;-78
2023/06/06 03:20:57;;;;;;;6.43;4.10;;;;;17.70;101992.00;;;;5085164;28;20233;-77
2023/06/06 03:23:24;;;;;;;5.13;3.45;;;;;17.70;101989.00;;;;5084008;28;20194;-76
2023/06/06 03:25:53;;;;;;;5.65;3.53;;;;;17.70;101988.00;;;;5083227;28;20995;-77
2023/06/06 03:28:21;;;;;;;10.10;4.30;;;;;17.70;101997.00;;;;5077861;28;20194;-78
2023/06/06 03:30:49;;;;;;;5.07;3.65;;;;;17.70;102000.00;;;;5085909;28;20287;-77
2023/06/06 03:33:17;;;;;;;5.95;3.72;;;;;17.70;101999.00;;;;5082713;28;20726;-77
2023/06/06 03:35:45;;;;;;;5.45;3.78;;;;;17.60;101997.00;;;;5086269;28;20199;-77
2023/06/06 03:38:13;;;;;;;4.85;3.80;;;;;17.60;101998.00;;;;5084981;28;20198;-77
2023/06/06 03:40:40;;;;;;;6.07;4.20;;;;;17.60;102003.00;;;;5082893;28;20656;-77
2023/06/06 03:43:07;;;;;;;8.50;4.20;;;;;17.60;101995.00;;;;5084601;28;20202;-77
2023/06/06 03:45:35;;;;;;;4.78;3.42;;;;;17.60;101995.00;;;;5078009;28;20209;-77
2023/06/06 03:48:02;;;;;;;6.85;3.72;;;;;17.60;101993.00;;;;5078181;28;20567;-77
2023/06/06 03:50:29;;;;;;;4.40;3.30;;;;;17.60;101992.00;;;;5079747;28;20201;-77
2023/06/06 03:52:58;;;;;;;4.82;3.72;;;;;17.60;101990.00;;;;5081942;28;20203;-77
2023/06/06 03:55:26;;;;;;;3.95;3.55;;;;;17.60;101988.00;;;;5083910;28;20206;-77
2023/06/06 03:57:53;;;;;;;4.45;3.20;;;;;17.60;101983.00;;;;5077214;28;20225;-77
2023/06/06 04:00:21;;;;;;;5.82;3.60;;;;;17.60;101989.00;;;;5078589;28;20187;-78
2023/06/06 04:02:49;;;;;;;3.83;3.25;;;;;17.60;101985.00;;;;5084576;28;20198;-77
2023/06/06 04:05:16;;;;;;;5.53;3.60;;;;;17.60;101985.00;;;;5084976;28;20198;-78
2023/06/06 04:07:45;;;;;;;6.18;3.40;;;;;17.60;101998.00;;;;5085104;28;20970;-77
2023/06/06 04:10:14;;;;;;;5.25;3.42;;;;;17.60;101996.00;;;;5083728;28;20218;-77
2023/06/06 04:12:41;;;;;;;7.15;3.30;;;;;17.60;102005.00;;;;5078452;28;20593;-78
2023/06/06 04:15:10;;;;;;;6.47;4.32;;;;;17.60;102005.00;;;;5084209;28;20572;-78
2023/06/06 04:17:37;;;;;;;5.45;3.78;;;;;17.70;101999.00;;;;5080010;28;20198;-77
2023/06/06 04:20:08;;;;;;;6.00;3.67;;;;;17.70;102005.00;;;;5079376;28;20202;-78
2023/06/06 04:22:35;;;;;;;3.90;3.05;;;;;17.70;101993.00;;;;5080272;28;20205;-77
2023/06/06 04:25:03;;;;;;;6.65;3.80;;;;;17.70;102000.00;;;;5079800;28;20198;-78
2023/06/06 04:27:32;;;;;;;4.95;3.30;;;;;17.70;102004.00;;;;5078790;28;20480;-78
2023/06/06 04:29:59;;;;;;;4.63;3.05;;;;;17.70;102004.00;;;;5083458;28;20198;-77
2023/06/06 04:32:27;;;;;;;6.22;3.83;;;;;17.70;102004.00;;;;5083878;28;20249;-77
2023/06/06 04:34:57;;;;;;;6.57;3.25;;;;;17.70;101994.00;;;;5085871;28;20194;-78
2023/06/06 04:37:24;;;;;;;5.13;3.20;;;;;17.80;101997.00;;;;5088854;28;20194;-77
2023/06/06 04:39:53;;;;;;;4.38;3.42;;;;;17.80;101993.00;;;;5081986;28;20209;-77
2023/06/06 04:42:23;;;;;;;5.25;3.22;;;;;17.80;101995.00;;;;5078413;28;20186;-77
2023/06/06 04:44:53;;;;;;;4.55;3.08;;;;;17.80;101994.00;;;;5084583;28;20202;-77
2023/06/06 04:47:20;;;;;;;3.83;3.15;;;;;17.80;101997.00;;;;5082590;28;20253;-78
2023/06/06 04:49:48;;;;;;;3.85;3.17;;;;;17.90;102001.00;;;;5087972;28;20256;-77
2023/06/06 04:52:16;;;;;;;4.07;3.05;;;;;17.90;101998.00;;;;5084341;28;21093;-77
2023/06/06 04:54:46;;;;;;;3.70;2.92;;;;;17.90;101999.00;;;;5087638;28;20194;-77
2023/06/06 04:57:16;;;;;;;5.13;2.90;;;;;17.90;101998.00;;;;5090480;28;20228;-78
2023/06/06 04:59:50;;;;;;;5.22;3.40;;;;;18.00;101996.00;;;;5089462;28;20190;-77
2023/06/06 05:02:21;;;;;;;6.13;3.17;;;;;18.00;101998.00;;;;5077941;28;20246;-78
2023/06/06 05:04:49;;;;;;;5.05;3.15;;;;;18.00;102000.00;;;;5087564;28;20210;-78
2023/06/06 05:07:17;;;;;;;4.78;2.70;;;;;18.10;101995.00;;;;5088131;28;20198;-78
2023/06/06 05:09:44;;;;;;;5.18;3.35;;;;;18.10;101993.00;;;;5086908;28;20202;-78
2023/06/06 05:12:11;;;;;;;3.92;3.00;;;;;18.20;101994.00;;;;5086989;28;20218;-77
2023/06/06 05:14:39;;;;;;;4.70;3.47;;;;;18.20;101999.00;;;;5081779;28;20209;-78
2023/06/06 05:17:06;;;;;;;6.95;3.58;;;;;18.20;101994.00;;;;5080518;28;20202;-77
2023/06/06 05:19:35;;;;;;;6.55;3.80;;;;;18.30;102001.00;;;;5080334;28;20187;-78
2023/06/06 05:22:02;;;;;;;5.93;3.50;;;;;18.30;101999.00;;;;5080268;28;20198;-77
2023/06/06 05:24:30;;;;;;;5.57;3.80;;;;;18.40;102006.00;;;;5082067;28;20198;-77
2023/06/06 05:26:57;;;;;;;6.05;3.42;;;;;18.40;101999.00;;;;5079986;28;20202;-77
2023/06/06 05:29:26;;;;;;;5.30;3.20;;;;;18.50;102009.00;;;;5089740;28;20195;-78
2023/06/06 05:31:53;;;;;;;7.45;3.70;;;;;18.50;102005.00;;;;5081665;28;20330;-78
2023/06/06 05:34:21;;;;;;;4.65;3.35;;;;;18.60;102006.00;;;;5086259;28;20611;-77
2023/06/06 05:36:50;;;;;;;6.70;3.47;;;;;18.60;102006.00;;;;5086899;28;20199;-78
2023/06/06 05:39:18;;;;;;;5.30;3.42;;;;;18.70;101996.00;;;;5085617;28;20207;-77
2023/06/06 05:41:47;;;;;;;6.13;3.60;;;;;18.70;101997.00;;;;5083365;28;20194;-77
2023/06/06 05:44:14;;;;;;;7.18;3.20;;;;;18.80;102001.00;;;;5083341;28;20190;-76
2023/06/06 05:46:41;;;;;;;6.15;3.50;;;;;18.90;102005.00;;;;5086879;28;20289;-78
2023/06/06 05:49:09;;;;;;;5.97;3.85;;;;;18.90;102007.00;;;;5088615;28;20683;-77
2023/06/06 05:51:37;;;;;;;9.13;3.47;;;;;19.00;102006.00;;;;5086971;28;20218;-77
2023/06/06 05:54:07;;;;;;;4.78;3.35;;;;;19.00;102008.00;;;;5084857;28;20232;-76
2023/06/06 05:56:35;;;;;;;4.07;3.17;;;;;19.10;102010.00;;;;5083035;28;20202;-77
2023/06/06 05:59:02;;;;;;;6.15;3.83;;;;;19.20;102008.00;;;;5084064;28;20592;-78
2023/06/06 06:01:30;;;;;;;6.47;3.65;;;;;19.20;102003.00;;;;5087494;28;20210;-78
2023/06/06 06:03:57;;;;;;;4.78;3.45;;;;;19.20;102003.00;;;;5078674;28;20278;-78
2023/06/06 06:06:25;;;;;;;7.70;3.47;;;;;19.30;101996.00;;;;5083534;28;20233;-78
2023/06/06 06:08:52;;;;;;;5.13;3.17;;;;;19.40;101999.00;;;;5087687;28;20778;-78
2023/06/06 06:11:20;;;;;;;5.45;3.40;;;;;19.40;102010.00;;;;5089207;28;20785;-78
2023/06/06 06:13:48;;;;;;;5.13;3.10;;;;;19.50;102001.00;;;;5086276;28;20706;-78
2023/06/06 06:16:15;;;;;;;6.10;3.35;;;;;19.60;102004.00;;;;5081859;28;20200;-78
2023/06/06 06:18:42;;;;;;;5.45;3.05;;;;;19.70;102006.00;;;;5086442;28;20206;-78
2023/06/06 06:21:10;;;;;;;5.68;2.92;;;;;19.70;101997.00;;;;5088844;28;20198;-78
2023/06/06 06:23:37;;;;;;;5.57;3.63;;;;;19.80;102006.00;;;;5088526;28;20206;-77
2023/06/06 06:26:04;;;;;;;4.68;3.65;;;;;19.80;102014.00;;;;5083688;28;20202;-79
2023/06/06 06:28:33;;;;;;;5.55;3.50;;;;;19.90;102013.00;;;;5088241;28;20195;-78
2023/06/06 06:31:00;;;;;;;3.55;2.92;;;;;19.90;102017.00;;;;5088827;28;20203;-78
2023/06/06 06:33:29;;;;;;;4.40;3.03;;;;;20.00;102018.00;;;;5083322;28;20296;-78
2023/06/06 06:35:56;;;;;;;5.70;3.28;;;;;20.10;102025.00;;;;5088293;28;20263;-77
2023/06/06 06:38:24;;;;;;;3.90;3.17;;;;;20.10;102021.00;;;;5086736;28;20195;-78
2023/06/06 06:40:52;;;;;;;4.80;3.05;;;;;20.20;102019.00;;;;5078606;28;20275;-78
2023/06/06 06:43:19;;;;;;;5.00;3.17;;;;;20.30;102012.00;;;;5075900;28;20195;-78
2023/06/06 06:45:48;;;;;;;5.05;3.03;;;;;20.30;102013.00;;;;5081970;28;20204;-78
2023/06/06 06:48:15;;;;;;;3.95;3.22;;;;;20.40;102011.00;;;;5078830;28;20208;-80
2023/06/06 06:50:42;;;;;;;3.28;2.78;;;;;20.50;102009.00;;;;5081805;28;20195;-79
2023/06/06 06:53:12;;;;;;;5.63;4.18;;;;;20.60;102008.00;;;;5083947;28;20229;-79
2023/06/06 06:55:41;;;;;;;4.75;2.90;;;;;20.70;102004.00;;;;5087694;28;20194;-79
2023/06/06 06:58:08;;;;;;;6.10;3.22;;;;;20.80;102011.00;;;;5085082;28;20272;-80
2023/06/06 07:00:35;;;;;;;5.63;3.28;;;;;20.90;102015.00;;;;5085727;28;20372;-79
2023/06/06 07:03:05;;;;;;;5.13;3.30;;;;;21.00;102011.00;;;;5086704;28;20214;-80
2023/06/06 07:05:32;;;;;;;5.60;3.38;;;;;21.10;102014.00;;;;5080124;28;20195;-79
2023/06/06 07:08:00;;;;;;;4.68;3.25;;;;;21.10;102024.00;;;;5086911;28;20217;-81
2023/06/06 07:10:31;;;;;;;4.53;2.78;;;;;21.20;102016.00;;;;5084631;28;20194;-79
2023/06/06 07:12:58;;;;;;;5.30;2.80;;;;;21.30;102018.00;;;;5082858;28;20595;-79
2023/06/06 07:15:26;;;;;;;4.85;3.10;;;;;21.40;102020.00;;;;5083999;28;20194;-80
2023/06/06 07:17:54;;;;;;;5.22;3.03;;;;;21.50;102020.00;;;;5082422;28;20208;-79
2023/06/06 07:20:23;;;;;;;5.28;2.67;;;;;21.50;102015.00;;;;5085314;28;20254;-79
2023/06/06 07:22:53;;;;;;;6.78;3.47;;;;;21.60;102022.00;;;;5085733;28;20575;-80
2023/06/06 07:25:20;;;;;;;4.07;3.00;;;;;21.70;102023.00;;;;5077390;28;20297;-82
2023/06/06 07:27:48;;;;;;;4.65;2.88;;;;;21.80;102017.00;;;;5086318;28;20195;-80
2023/06/06 07:30:15;;;;;;;8.85;3.15;;;;;21.80;102016.00;;;;5086982;28;20194;-79
2023/06/06 07:32:43;;;;;;;5.82;3.00;;;;;21.90;102017.00;;;;5086612;28;20237;-80
2023/06/06 07:35:11;;;;;;;5.47;3.47;;;;;22.00;102017.00;;;;5085311;28;20417;-80
2023/06/06 07:37:40;;;;;;;4.85;2.40;;;;;22.00;102021.00;;;;5085239;28;20190;-81
2023/06/06 07:40:09;;;;;;;3.40;2.58;;;;;22.10;102018.00;;;;5085190;28;20202;-80
2023/06/06 07:42:36;;;;;;;4.60;2.75;;;;;22.10;102011.00;;;;5081616;28;20736;-79
2023/06/06 07:45:04;;;;;;;8.07;2.60;;;;;22.20;102003.00;;;;5084344;28;20210;-79
2023/06/06 07:47:32;;;;;;;6.03;2.80;;;;;22.40;102006.00;;;;5075894;28;20274;-79
2023/06/06 07:49:59;;;;;;;5.55;3.08;;;;;22.40;102002.00;;;;5084133;28;20198;-79
2023/06/06 07:52:26;;;;;;;4.82;2.75;;;;;22.50;102004.00;;;;5083987;28;20222;-81
2023/06/06 07:54:55;;;;;;;4.60;2.80;;;;;22.60;102001.00;;;;5079969;28;20206;-80
2023/06/06 07:57:23;;;;;;;3.15;2.55;;;;;22.60;101997.00;;;;5082882;28;20569;-80
2023/06/06 07:59:51;;;;;;;3.55;2.58;;;;;22.80;101995.00;;;;5081894;28;20201;-81
2023/06/06 08:02:19;;;;;;;5.05;2.63;;;;;22.90;101991.00;;;;5086266;28;20565;-81
2023/06/06 08:04:46;;;;;;;6.68;2.67;;;;;23.00;101991.00;;;;5084510;28;20199;-80
2023/06/06 08:07:14;;;;;;;4.95;2.88;;;;;23.10;101993.00;;;;5083437;28;20289;-81
2023/06/06 08:09:42;;;;;;;4.40;2.35;;;;;23.20;101995.00;;;;5085641;28;20213;-81
2023/06/06 08:12:12;;;;;;;3.90;2.33;;;;;23.30;101998.00;;;;5088577;28;20256;-80
2023/06/06 08:14:40;;;;;;;6.70;2.70;;;;;23.40;101996.00;;;;5086340;28;20194;-80
2023/06/06 08:17:07;;;;;;;5.55;2.78;;;;;23.50;101999.00;;;;5091547;28;20202;-80
2023/06/06 08:19:35;;;;;;;4.00;2.38;;;;;23.60;102000.00;;;;5089739;28;20202;-80
2023/06/06 08:22:02;;;;;;;3.47;2.53;;;;;23.70;102006.00;;;;5088712;28;20197;-80
2023/06/06 08:24:30;;;;;;;5.22;2.67;;;;;23.80;102001.00;;;;5082232;28;20191;-80
2023/06/06 08:26:58;;;;;;;6.20;3.20;;;;;23.90;102002.00;;;;5087599;28;20202;-81
2023/06/06 08:29:26;;;;;;;3.30;2.28;;;;;24.00;102004.00;;;;5089757;28;20194;-81
2023/06/06 08:31:54;;;;;;;5.03;2.75;;;;;24.20;102003.00;;;;5086363;28;20691;-81
2023/06/06 08:34:21;;;;;;;3.83;2.70;;;;;24.30;102003.00;;;;5090400;28;20218;-82
2023/06/06 08:36:49;;;;;;;3.22;2.40;;;;;24.40;102001.00;;;;5086087;28;20198;-81
2023/06/06 08:39:19;;;;;;;2.88;2.05;;;;;24.50;101998.00;;;;5083124;28;20194;-82
2023/06/06 08:41:51;;;;;;;4.50;3.13;;;;;24.60;102001.00;;;;5089456;28;20203;-81
2023/06/06 08:44:21;;;;;;;17.98;3.10;;;;;24.70;102006.00;;;;5088621;28;20227;-80
2023/06/06 08:46:52;;;;;;;3.47;2.53;;;;;24.70;102007.00;;;;5080405;28;20678;-80
2023/06/06 08:49:20;;;;;;;2.53;2.28;;;;;24.80;102000.00;;;;5088542;28;20203;-80
2023/06/06 08:51:49;;;;;;;2.95;2.55;;;;;25.00;102009.00;;;;5083150;28;20656;-81
2023/06/06 08:54:18;;;;;;;3.55;2.92;;;;;25.00;102001.00;;;;5088640;28;20225;-81
2023/06/06 08:56:47;;;;;;;4.07;2.75;;;;;25.10;101999.00;;;;5088599;28;20202;-81
2023/06/06 08:59:15;;;;;;;4.65;2.97;;;;;25.20;102001.00;;;;5087561;28;20221;-81
2023/06/06 09:01:43;;;;;;;4.95;2.80;;;;;25.30;101996.00;;;;5082875;28;20199;-81
2023/06/06 09:04:14;;;;;;;5.03;2.80;;;;;25.40;101998.00;;;;5081883;28;20202;-80
2023/06/06 09:06:45;;;;;;;5.25;2.45;;;;;25.50;102000.00;;;;5082529;28;20264;-80
2023/06/06 09:09:14;;;;;;;3.97;2.60;;;;;25.60;102002.00;;;;5086899;28;20237;-82
2023/06/06 09:11:41;;;;;;;5.78;3.33;;;;;25.70;101997.00;;;;5080501;28;20203;-81
2023/06/06 09:14:08;;;;;;;5.55;2.50;;;;;25.80;101995.00;;;;5087704;28;20222;-81
2023/06/06 09:16:36;;;;;;;4.13;3.03;;;;;25.90;102000.00;;;;5087052;28;20195;-81
2023/06/06 09:19:05;;;;;;;4.07;2.58;;;;;26.00;102002.00;;;;5080549;28;20198;-82
2023/06/06 09:21:36;;;;;;;6.03;3.35;;;;;26.10;101999.00;;;;5081616;28;20199;-81
2023/06/06 09:24:04;;;;;;;3.85;2.47;;;;;26.20;101995.00;;;;5085785;28;20190;-81
2023/06/06 09:26:33;;;;;;;5.38;3.03;;;;;26.30;102001.00;;;;5085204;28;20273;-80
2023/06/06 09:29:08;;;;;;;4.68;2.60;;;;;26.40;101992.00;;;;5083744;28;20190;-81
2023/06/06 09:31:37;;;;;;;4.18;2.42;;;;;26.50;101996.00;;;;5084640;28;21118;-81
2023/06/06 09:34:07;;;;;;;3.42;2.70;;;;;26.60;102000.00;;;;5089192;28;20671;-81
2023/06/06 09:36:38;;;;;;;3.95;2.63;;;;;26.70;101997.00;;;;5085290;28;21076;-80
2023/06/06 09:39:10;;;;;;;4.75;2.50;;;;;26.80;101995.00;;;;5083265;28;20187;-81
2023/06/06 09:41:41;;;;;;;3.22;2.72;;;;;26.90;101998.00;;;;5080669;28;20574;-81
2023/06/06 09:44:21;;;;;;;4.35;3.25;;;;;26.90;101994.00;;;;5086376;28;20221;-81
2023/06/06 09:46:49;;;;;;;3.42;2.78;;;;;27.10;101995.00;;;;5085674;28;20668;-81
2023/06/06 09:49:17;;;;;;;4.18;2.47;;;;;27.10;101988.00;;;;5088331;28;20198;-80
2023/06/06 09:51:46;;;;;;;5.05;3.15;;;;;27.20;101999.00;;;;5085405;28;20205;-81
2023/06/06 09:54:13;;;;;;;5.97;2.85;;;;;27.30;101994.00;;;;5089019;28;20230;-82
2023/06/06 09:56:42;;;;;;;4.72;2.92;;;;;27.30;101983.00;;;;5082454;28;20191;-80
2023/06/06 09:59:11;;;;;;;4.05;3.10;;;;;27.40;101983.00;;;;5085154;28;20275;-81
2023/06/06 10:01:42;;;;;;;4.63;3.10;;;;;27.50;101980.00;;;;5083171;28;20210;-81
2023/06/06 10:04:10;;;;;;;3.63;2.72;;;;;27.50;101982.00;;;;5077083;28;20766;-81
2023/06/06 10:06:43;;;;;;;4.70;3.15;;;;;27.60;101988.00;;;;5084261;28;20212;-81
2023/06/06 10:09:12;;;;;;;5.18;2.85;;;;;27.60;101980.00;;;;5088176;28;20221;-81
2023/06/06 10:11:40;;;;;;;4.72;2.90;;;;;27.60;101986.00;;;;5085768;28;20676;-82
2023/06/06 10:14:08;;;;;;;2.92;2.65;;;;;27.70;101980.00;;;;5084731;28;20230;-81
2023/06/06 10:16:36;;;;;;;3.42;2.78;;;;;27.70;101978.00;;;;5080478;28;20285;-80
2023/06/06 10:19:04;;;;;;;6.50;2.70;;;;;27.70;101981.00;;;;5088214;28;20926;-80
2023/06/06 10:21:32;;;;;;;5.95;2.97;;;;;27.80;101992.00;;;;5085733;28;20216;-82
2023/06/06 10:23:59;;;;;;;4.00;3.03;;;;;27.80;101986.00;;;;5087447;28;20203;-81
2023/06/06 10:26:40;;;;;;;5.15;3.08;;;;;27.80;101990.00;;;;5085278;28;20279;-81
2023/06/06 10:29:12;;;;;;;4.80;3.35;;;;;27.80;101980.00;;;;5079487;28;20202;-81
2023/06/06 10:31:46;;;;;;;4.75;3.28;;;;;27.90;101981.00;;;;5079731;28;20205;-81
2023/06/06 10:34:19;;;;;;;3.95;2.65;;;;;27.90;101984.00;;;;5085187;28;20241;-81
2023/06/06 10:36:46;;;;;;;3.53;2.67;;;;;28.00;101982.00;;;;5085206;28;20199;-82
2023/06/06 10:39:18;;;;;;;2.95;2.20;;;;;28.10;101981.00;;;;5086689;28;20194;-81
2023/06/06 10:41:59;;;;;;;7.07;3.55;;;;;28.10;101975.00;;;;5078444;28;20195;-81
2023/06/06 10:44:28;;;;;;;5.53;2.47;;;;;28.20;101979.00;;;;5082753;28;20197;-78
2023/06/06 10:47:28;;;;;;;7.45;3.45;;;;;28.10;101971.00;;;;5079967;28;20209;-79
2023/06/06 10:50:22;;;;;;;3.13;2.72;;;;;28.20;101980.00;;;;5079058;28;20198;-78
2023/06/06 10:52:51;;;;;;;12.43;2.97;;;;;28.30;101979.00;;;;5083259;28;20240;-83
2023/06/06 10:55:41;;;;;;;3.22;2.50;;;;;28.20;101974.00;;;;5085858;28;20220;-81
2023/06/06 10:58:13;;;;;;;5.85;3.40;;;;;28.40;101978.00;;;;5075948;28;20289;-81
2023/06/06 11:00:43;;;;;;;6.40;2.80;;;;;28.50;101973.00;;;;5085094;28;20197;-81
2023/06/06 11:03:13;;;;;;;5.35;2.55;;;;;28.50;101965.00;;;;5085727;28;20194;-81
2023/06/06 11:06:20;;;;;;;5.40;2.90;;;;;28.40;101962.00;;;;5082912;28;20228;-81
2023/06/06 11:08:53;;;;;;;4.15;2.28;;;;;28.50;101967.00;;;;5082758;28;20202;-81
2023/06/06 11:11:26;;;;;;;4.38;3.10;;;;;28.50;101969.00;;;;5087648;28;20588;-81
2023/06/06 11:13:57;;;;;;;2.70;2.00;;;;;28.60;101969.00;;;;5071313;28;20271;-82
2023/06/06 11:16:57;;;;;;;4.03;2.80;;;;;28.50;101956.00;;;;5087358;28;20194;-78
2023/06/06 11:19:37;;;;;;;3.00;2.50;;;;;28.60;101960.00;;;;5052278;28;20194;-79
2023/06/06 11:22:05;;;;;;;4.28;2.88;;;;;28.70;101963.00;;;;5085217;28;20205;-78
2023/06/06 11:24:35;;;;;;;5.57;2.85;;;;;28.80;101955.00;;;;5085009;28;20687;-78
2023/06/06 11:27:05;;;;;;;3.45;2.72;;;;;28.80;101962.00;;;;5076376;28;20191;-78
2023/06/06 11:29:34;;;;;;;3.17;2.80;;;;;28.80;101960.00;;;;5084560;28;20569;-82
2023/06/06 11:32:03;;;;;;;4.25;3.00;;;;;28.80;101960.00;;;;5086596;28;20194;-81
2023/06/06 11:34:35;;;;;;;6.22;3.22;;;;;28.80;101951.00;;;;5084128;28;20226;-81
2023/06/06 11:37:03;;;;;;;3.28;2.70;;;;;28.80;101951.00;;;;5086787;28;20201;-82
2023/06/06 11:39:31;;;;;;;4.38;3.17;;;;;28.90;101952.00;;;;5079864;28;20902;-81
2023/06/06 11:41:59;;;;;;;5.55;2.40;;;;;28.90;101955.00;;;;5081177;28;20205;-82
2023/06/06 11:44:35;;;;;;;3.88;2.50;;;;;28.80;101945.00;;;;5077228;28;20198;-81
2023/06/06 11:47:08;;;;;;;3.33;2.55;;;;;29.00;101950.00;;;;5084929;28;20943;-81
2023/06/06 11:49:47;;;;;;;3.08;2.25;;;;;28.90;101951.00;;;;5084057;28;20247;-81
2023/06/06 11:52:15;;;;;;;6.10;3.05;;;;;29.00;101949.00;;;;5080080;28;21017;-82
2023/06/06 11:54:53;;;;;;;6.72;2.90;;;;;29.00;101949.00;;;;5070546;28;20244;-82
2023/06/06 11:57:21;;;;;;;4.70;2.78;;;;;29.10;101951.00;;;;5082023;28;20198;-79
2023/06/06 11:59:56;;;;;;;6.05;3.05;;;;;29.00;101955.00;;;;5082458;28;20221;-78
2023/06/06 12:02:24;;;;;;;7.50;3.15;;;;;29.10;101950.00;;;;5081635;28;20225;-78
2023/06/06 12:04:51;;;;;;;6.30;3.30;;;;;29.10;101948.00;;;;5082747;28;20207;-79
2023/06/06 12:07:21;;;;;;;3.90;2.80;;;;;29.10;101943.00;;;;5085612;28;20198;-80
2023/06/06 12:09:58;;;;;;;3.38;2.58;;;;;29.10;101949.00;;;;5086650;28;20209;-78
2023/06/06 12:12:25;;;;;;;4.25;2.80;;;;;29.20;101947.00;;;;5084691;28;20212;-82
2023/06/06 12:14:59;;;;;;;5.88;2.78;;;;;29.10;101940.00;;;;5085502;28;20717;-82
2023/06/06 12:17:28;;;;;;;4.55;2.80;;;;;29.20;101949.00;;;;5085276;28;20194;-83
2023/06/06 12:19:56;;;;;;;3.42;2.45;;;;;29.20;101943.00;;;;5077441;28;20224;-81